Time;durP1;ratioP1;P1;durP2;ratioP2;P2;SDS_P1;SDS_P2;PMS_P1;PMS_P2;Temp;Humidity;BMP_temperature;BMP_pressure;BME280_temperature;BME280_humidity;BME280_pressure;Samples;Min_cycle;Max_cycle;Signal;HPM_P1;HPM_P2
2021/11/23 00:01:20;;;;;;;;;;;3.80;99.90;;;;;;5062894;28;20039;-76
2021/11/23 00:03:46;;;;;;;;;;;3.80;99.90;;;;;;5061056;28;20004;-76
2021/11/23 00:06:12;;;;;;;;;;;3.90;99.90;;;;;;5071754;28;19955;-76
2021/11/23 00:08:38;;;;;;;;;;;3.90;99.90;;;;;;5065651;28;19951;-76
2021/11/23 00:11:04;;;;;;;;;;;3.90;99.90;;;;;;5062049;28;20019;-77
2021/11/23 00:13:29;;;;;;;;;;;3.90;99.90;;;;;;5079716;28;20283;-76
2021/11/23 00:15:55;;;;;;;;;;;4.00;99.90;;;;;;5068294;28;20342;-76
2021/11/23 00:18:21;;;;;;;;;;;4.10;99.90;;;;;;5077776;28;19931;-76
2021/11/23 00:20:47;;;;;;;;;;;4.10;99.90;;;;;;5074226;28;19920;-76
2021/11/23 00:23:13;;;;;;;;;;;4.20;99.90;;;;;;5073899;28;20332;-76
2021/11/23 00:25:39;;;;;;;;;;;4.10;99.90;;;;;;5067976;28;19912;-75
2021/11/23 00:28:05;;;;;;;;;;;4.10;99.90;;;;;;5056015;28;20199;-76
2021/11/23 00:30:31;;;;;;;;;;;4.10;99.90;;;;;;5084928;28;19970;-76
2021/11/23 00:32:57;;;;;;;;;;;4.20;99.90;;;;;;5070744;28;20195;-76
2021/11/23 00:35:22;;;;;;;;;;;4.30;99.90;;;;;;5062694;28;19955;-75
2021/11/23 00:37:50;;;;;;;;;;;4.30;99.90;;;;;;5072355;28;20219;-76
2021/11/23 00:40:15;;;;;;;;;;;4.30;99.90;;;;;;5062290;28;19952;-75
2021/11/23 00:42:41;;;;;;;;;;;4.30;99.90;;;;;;5061901;28;19944;-76
2021/11/23 00:45:07;;;;;;;;;;;4.40;99.90;;;;;;5060537;28;19920;-76
2021/11/23 00:47:33;;;;;;;;;;;4.50;99.90;;;;;;5059185;28;19913;-75
2021/11/23 00:49:59;;;;;;;;;;;4.50;99.90;;;;;;5074861;28;19919;-76
2021/11/23 00:52:24;;;;;;;;;;;4.50;99.90;;;;;;5073496;28;20264;-76
2021/11/23 00:54:50;;;;;;;;;;;4.50;99.90;;;;;;5074262;28;19908;-75
2021/11/23 00:57:16;;;;;;;;;;;4.50;99.90;;;;;;5072769;28;20366;-76
2021/11/23 00:59:42;;;;;;;;;;;4.50;99.90;;;;;;5074145;28;19998;-75
2021/11/23 01:02:08;;;;;;;;;;;4.60;99.90;;;;;;5086491;28;19908;-76
2021/11/23 01:04:34;;;;;;;;;;;4.50;99.90;;;;;;5074324;28;19916;-76
2021/11/23 01:06:59;;;;;;;;;;;4.60;99.90;;;;;;5073879;28;19995;-75
2021/11/23 01:09:25;;;;;;;;;;;4.50;99.90;;;;;;5068501;28;19999;-75
2021/11/23 01:11:51;;;;;;;;;;;4.60;99.90;;;;;;5069717;28;20438;-76
2021/11/23 01:14:16;;;;;;;;;;;4.70;99.90;;;;;;5073129;28;20568;-76
2021/11/23 01:16:44;;;;;;;;;;;4.60;99.90;;;;;;5061721;28;20359;-75
2021/11/23 01:19:11;;;;;;;;;;;4.60;99.90;;;;;;5063689;28;19935;-75
2021/11/23 01:21:36;;;;;;;;;;;4.60;99.90;;;;;;5072229;28;19912;-75
2021/11/23 01:24:02;;;;;;;;;;;4.70;99.90;;;;;;5056322;28;19913;-75
2021/11/23 01:26:28;;;;;;;;;;;4.70;99.90;;;;;;5058324;28;20262;-75
2021/11/23 01:28:53;;;;;;;;;;;4.70;99.90;;;;;;5073300;28;19917;-76
2021/11/23 01:31:19;;;;;;;;;;;4.80;99.90;;;;;;5076427;28;19971;-75
2021/11/23 01:33:44;;;;;;;;;;;4.80;99.90;;;;;;5074402;28;19919;-75
2021/11/23 01:36:10;;;;;;;;;;;4.80;99.90;;;;;;5068839;28;20196;-76
2021/11/23 01:38:35;;;;;;;;;;;4.70;99.90;;;;;;5068345;28;19913;-76
2021/11/23 01:41:02;;;;;;;;;;;4.80;99.90;;;;;;5077085;28;19951;-76
2021/11/23 01:43:27;;;;;;;;;;;4.80;99.90;;;;;;5085752;28;19916;-75
2021/11/23 01:45:56;;;;;;;;;;;4.80;99.90;;;;;;5063860;28;20234;-75
2021/11/23 01:48:21;;;;;;;;;;;4.80;99.90;;;;;;5072872;28;19912;-76
2021/11/23 01:50:47;;;;;;;;;;;4.80;99.90;;;;;;5075367;28;19923;-76
2021/11/23 01:53:13;;;;;;;;;;;4.90;99.90;;;;;;5063660;28;19941;-75
2021/11/23 01:55:40;;;;;;;;;;;4.90;99.90;;;;;;5068841;28;20357;-77
2021/11/23 01:58:07;;;;;;;;;;;4.90;99.90;;;;;;5069512;28;19915;-76
2021/11/23 02:00:34;;;;;;;;;;;4.90;99.90;;;;;;5066707;28;19919;-76
2021/11/23 02:03:00;;;;;;;;;;;5.00;99.90;;;;;;5068694;28;20307;-75
2021/11/23 02:05:26;;;;;;;;;;;5.10;99.90;;;;;;5073749;28;19959;-76
2021/11/23 02:07:51;;;;;;;;;;;5.10;99.90;;;;;;5074644;28;19924;-75
2021/11/23 02:10:17;;;;;;;;;;;5.10;99.90;;;;;;5089870;28;19912;-75
2021/11/23 02:12:43;;;;;;;;;;;5.10;99.90;;;;;;5073514;28;19921;-75
2021/11/23 02:15:09;;;;;;;;;;;5.20;99.90;;;;;;5078061;28;19916;-75
2021/11/23 02:17:35;;;;;;;;;;;5.20;99.90;;;;;;5077492;28;20004;-75
2021/11/23 02:20:02;;;;;;;;;;;5.30;99.90;;;;;;5079415;28;19951;-75
2021/11/23 02:22:28;;;;;;;;;;;5.30;99.90;;;;;;5078845;28;19919;-76
2021/11/23 02:24:53;;;;;;;;;;;5.30;99.90;;;;;;5085391;28;20250;-75
2021/11/23 02:27:19;;;;;;;;;;;5.40;99.90;;;;;;5069216;28;19912;-75
2021/11/23 02:29:44;;;;;;;;;;;5.40;99.90;;;;;;5061156;28;19963;-75
2021/11/23 02:32:10;;;;;;;;;;;5.50;99.90;;;;;;5080456;28;19917;-75
2021/11/23 02:34:36;;;;;;;;;;;5.50;99.90;;;;;;5076175;28;19908;-76
2021/11/23 02:37:02;;;;;;;;;;;5.60;99.90;;;;;;5070355;28;20223;-76
2021/11/23 02:39:27;;;;;;;;;;;5.60;99.90;;;;;;5067957;28;19944;-76
2021/11/23 02:41:53;;;;;;;;;;;5.60;99.90;;;;;;5078425;28;19962;-75
2021/11/23 02:44:18;;;;;;;;;;;5.60;99.90;;;;;;5084857;28;19954;-76
2021/11/23 02:46:44;;;;;;;;;;;5.70;99.90;;;;;;5074800;28;19916;-75
2021/11/23 02:49:09;;;;;;;;;;;5.70;99.90;;;;;;5086492;28;20313;-75
2021/11/23 02:51:37;;;;;;;;;;;5.70;99.90;;;;;;5075942;28;20006;-75
2021/11/23 02:54:03;;;;;;;;;;;5.80;99.90;;;;;;5074771;28;19912;-75
2021/11/23 02:56:28;;;;;;;;;;;5.70;99.90;;;;;;5076009;28;19912;-75
2021/11/23 02:58:54;;;;;;;;;;;5.80;99.90;;;;;;5079647;28;20409;-75
2021/11/23 03:01:22;;;;;;;;;;;5.70;99.90;;;;;;5068817;28;19948;-75
2021/11/23 03:03:48;;;;;;;;;;;5.70;99.90;;;;;;5069492;28;19909;-75
2021/11/23 03:06:17;;;;;;;;;;;5.70;99.90;;;;;;5074222;28;19918;-76
2021/11/23 03:08:43;;;;;;;;;;;5.70;99.90;;;;;;5075899;28;19995;-75
2021/11/23 03:11:09;;;;;;;;;;;5.80;99.90;;;;;;5075224;28;19979;-75
2021/11/23 03:13:34;;;;;;;;;;;5.80;99.90;;;;;;5081981;28;19927;-76
2021/11/23 03:16:00;;;;;;;;;;;5.80;99.90;;;;;;5074759;28;19912;-76
2021/11/23 03:18:27;;;;;;;;;;;5.90;99.90;;;;;;5080874;28;19930;-75
2021/11/23 03:20:52;;;;;;;;;;;5.90;99.90;;;;;;5073754;28;19966;-75
2021/11/23 03:23:18;;;;;;;;;;;5.90;99.90;;;;;;5096549;28;20007;-76
2021/11/23 03:25:44;;;;;;;;;;;5.90;99.90;;;;;;5069309;28;20284;-75
2021/11/23 03:28:10;;;;;;;;;;;6.00;99.90;;;;;;5071166;28;19913;-76
2021/11/23 03:30:36;;;;;;;;;;;6.00;99.90;;;;;;5078362;28;19924;-76
2021/11/23 03:33:04;;;;;;;;;;;6.10;99.90;;;;;;5074470;28;20077;-79
2021/11/23 03:35:31;;;;;;;;;;;6.10;99.90;;;;;;5061214;28;19912;-75
2021/11/23 03:37:58;;;;;;;;;;;6.10;99.90;;;;;;5058869;28;19913;-75
2021/11/23 03:40:24;;;;;;;;;;;6.10;99.90;;;;;;5087184;28;19919;-75
2021/11/23 03:42:50;;;;;;;;;;;6.10;99.90;;;;;;5072997;28;19977;-76
2021/11/23 03:45:15;;;;;;;;;;;6.10;99.90;;;;;;5074998;28;19974;-76
2021/11/23 03:47:41;;;;;;;;;;;6.00;99.90;;;;;;5078020;28;20260;-76
2021/11/23 03:50:09;;;;;;;;;;;6.00;99.90;;;;;;5078655;28;19916;-75
2021/11/23 03:52:34;;;;;;;;;;;6.10;99.90;;;;;;5073110;28;20005;-76
2021/11/23 03:55:00;;;;;;;;;;;6.00;99.90;;;;;;5072569;28;20037;-76
2021/11/23 03:57:26;;;;;;;;;;;6.10;99.90;;;;;;5074938;28;19916;-75
2021/11/23 03:59:51;;;;;;;;;;;6.00;99.90;;;;;;5074683;28;19913;-76
2021/11/23 04:02:18;;;;;;;;;;;6.10;99.90;;;;;;5073758;28;19919;-76
2021/11/23 04:04:44;;;;;;;;;;;6.10;99.90;;;;;;5074997;28;21766;-76
2021/11/23 04:07:10;;;;;;;;;;;6.10;99.90;;;;;;5076654;28;19919;-76
2021/11/23 04:09:35;;;;;;;;;;;6.10;99.90;;;;;;5059683;28;19909;-76
2021/11/23 04:12:01;;;;;;;;;;;6.10;99.90;;;;;;5063998;28;19913;-76
2021/11/23 04:14:26;;;;;;;;;;;6.20;99.90;;;;;;5069871;28;19912;-76
2021/11/23 04:16:52;;;;;;;;;;;6.20;99.90;;;;;;5084900;28;19938;-76
2021/11/23 04:19:18;;;;;;;;;;;6.20;99.90;;;;;;5066727;28;19912;-76
2021/11/23 04:21:43;;;;;;;;;;;6.20;99.90;;;;;;5061779;28;19916;-76
2021/11/23 04:24:09;;;;;;;;;;;6.20;99.90;;;;;;5072479;28;20007;-76
2021/11/23 04:26:34;;;;;;;;;;;6.20;99.90;;;;;;5072435;28;19909;-75
2021/11/23 04:29:00;;;;;;;;;;;6.20;99.90;;;;;;5074197;28;19913;-75
2021/11/23 04:31:25;;;;;;;;;;;6.20;99.90;;;;;;5058595;28;19955;-77
2021/11/23 04:33:51;;;;;;;;;;;6.20;99.90;;;;;;5064816;28;19966;-76
2021/11/23 04:36:17;;;;;;;;;;;6.20;99.90;;;;;;5074829;28;20314;-76
2021/11/23 04:38:42;;;;;;;;;;;6.20;99.90;;;;;;5073317;28;19959;-76
2021/11/23 04:41:08;;;;;;;;;;;6.20;99.90;;;;;;5072708;28;19908;-76
2021/11/23 04:43:33;;;;;;;;;;;6.20;99.90;;;;;;5059396;28;19993;-76
2021/11/23 04:45:59;;;;;;;;;;;6.20;99.90;;;;;;5057194;28;19909;-76
2021/11/23 04:48:26;;;;;;;;;;;6.20;99.90;;;;;;5070457;28;19966;-75
2021/11/23 04:50:51;;;;;;;;;;;6.20;99.90;;;;;;5073541;28;19920;-76
2021/11/23 04:53:17;;;;;;;;;;;6.30;99.90;;;;;;5065523;28;20023;-76
2021/11/23 04:55:44;;;;;;;;;;;6.30;99.90;;;;;;5053613;28;19917;-76
2021/11/23 04:58:09;;;;;;;;;;;6.30;99.90;;;;;;5058296;28;19970;-77
2021/11/23 05:00:35;;;;;;;;;;;6.30;99.90;;;;;;5069833;28;20302;-76
2021/11/23 05:03:00;;;;;;;;;;;6.30;99.90;;;;;;5068397;28;20378;-76
2021/11/23 05:05:27;;;;;;;;;;;6.30;99.90;;;;;;5076795;28;19912;-76
2021/11/23 05:07:53;;;;;;;;;;;6.30;99.90;;;;;;5076538;28;19923;-76
2021/11/23 05:10:18;;;;;;;;;;;6.30;99.90;;;;;;5066549;28;19909;-76
2021/11/23 05:12:44;;;;;;;;;;;6.40;99.90;;;;;;5065273;28;19939;-76
2021/11/23 05:15:10;;;;;;;;;;;6.40;99.90;;;;;;5066527;28;19915;-76
2021/11/23 05:17:36;;;;;;;;;;;6.40;99.90;;;;;;5062128;28;19920;-76
2021/11/23 05:20:03;;;;;;;;;;;6.50;99.90;;;;;;5076211;28;19912;-76
2021/11/23 05:22:28;;;;;;;;;;;6.40;99.90;;;;;;5078925;28;19923;-76
2021/11/23 05:24:54;;;;;;;;;;;6.50;99.90;;;;;;5069652;28;19995;-76
2021/11/23 05:27:19;;;;;;;;;;;6.50;99.90;;;;;;5090036;28;19909;-75
2021/11/23 05:29:45;;;;;;;;;;;6.50;99.90;;;;;;5076606;28;20374;-75
2021/11/23 05:32:10;;;;;;;;;;;6.50;99.90;;;;;;5069386;28;19931;-76
2021/11/23 05:34:36;;;;;;;;;;;6.50;99.90;;;;;;5082481;28;20211;-76
2021/11/23 05:37:02;;;;;;;;;;;6.50;99.90;;;;;;5060116;28;19979;-76
2021/11/23 05:39:27;;;;;;;;;;;6.50;99.90;;;;;;5084865;28;19959;-76
2021/11/23 05:41:53;;;;;;;;;;;6.50;99.90;;;;;;5069897;28;20267;-76
2021/11/23 05:44:19;;;;;;;;;;;6.50;99.90;;;;;;5082477;28;19917;-76
2021/11/23 05:46:44;;;;;;;;;;;6.50;99.90;;;;;;5089809;28;19991;-76
2021/11/23 05:49:10;;;;;;;;;;;6.50;99.90;;;;;;5075449;28;20010;-76
2021/11/23 05:51:36;;;;;;;;;;;6.40;99.90;;;;;;5080254;28;20330;-76
2021/11/23 05:54:02;;;;;;;;;;;6.40;99.90;;;;;;5077120;28;19923;-80
2021/11/23 05:56:27;;;;;;;;;;;6.40;99.90;;;;;;5072106;28;20332;-76
2021/11/23 05:58:53;;;;;;;;;;;6.40;99.90;;;;;;5070433;28;19913;-76
2021/11/23 06:01:18;;;;;;;;;;;6.40;99.90;;;;;;5065684;28;20386;-76
2021/11/23 06:03:44;;;;;;;;;;;6.40;99.90;;;;;;5087868;28;19916;-76
2021/11/23 06:06:11;;;;;;;;;;;6.50;99.90;;;;;;5083409;28;19919;-76
2021/11/23 06:08:37;;;;;;;;;;;6.40;99.90;;;;;;5076333;28;19919;-76
2021/11/23 06:11:02;;;;;;;;;;;6.50;99.90;;;;;;5056000;28;19909;-76
2021/11/23 06:13:28;;;;;;;;;;;6.50;99.90;;;;;;5083766;28;19919;-76
2021/11/23 06:15:54;;;;;;;;;;;6.50;99.90;;;;;;5060286;28;19927;-76
2021/11/23 06:18:20;;;;;;;;;;;6.50;99.90;;;;;;5065590;28;19925;-76
2021/11/23 06:20:46;;;;;;;;;;;6.50;99.90;;;;;;5076048;28;19913;-75
2021/11/23 06:23:13;;;;;;;;;;;6.50;99.90;;;;;;5079207;28;19924;-75
2021/11/23 06:25:41;;;;;;;;;;;6.50;99.90;;;;;;5075233;28;19915;-76
2021/11/23 06:28:07;;;;;;;;;;;6.60;99.90;;;;;;5062632;28;20233;-76
2021/11/23 06:30:32;;;;;;;;;;;6.60;99.90;;;;;;5069078;28;19913;-76
2021/11/23 06:32:58;;;;;;;;;;;6.60;99.90;;;;;;5061778;28;19916;-76
2021/11/23 06:35:23;;;;;;;;;;;6.60;99.90;;;;;;5071341;28;19912;-76
2021/11/23 06:37:49;;;;;;;;;;;6.60;99.90;;;;;;5064139;28;19920;-75
2021/11/23 06:40:14;;;;;;;;;;;6.50;99.90;;;;;;5063514;28;19917;-76
2021/11/23 06:42:40;;;;;;;;;;;6.60;99.90;;;;;;5073269;28;20220;-75
2021/11/23 06:45:07;;;;;;;;;;;6.60;99.90;;;;;;5066207;28;19912;-76
2021/11/23 06:47:33;;;;;;;;;;;6.60;99.90;;;;;;5057568;28;20223;-76
2021/11/23 06:49:58;;;;;;;;;;;6.60;99.90;;;;;;5068937;28;19923;-77
2021/11/23 06:52:25;;;;;;;;;;;6.70;99.90;;;;;;5066748;28;19916;-77
2021/11/23 06:54:50;;;;;;;;;;;6.70;99.90;;;;;;5069255;28;19935;-76
2021/11/23 06:57:16;;;;;;;;;;;6.70;99.90;;;;;;5066503;28;19917;-76
2021/11/23 06:59:41;;;;;;;;;;;6.70;99.90;;;;;;5068672;28;20219;-76
2021/11/23 07:02:07;;;;;;;;;;;6.70;99.90;;;;;;5070516;28;19956;-77
2021/11/23 07:04:33;;;;;;;;;;;6.80;99.90;;;;;;5068590;28;19935;-76
2021/11/23 07:06:59;;;;;;;;;;;6.80;99.90;;;;;;5067071;28;19913;-76
2021/11/23 07:09:24;;;;;;;;;;;6.90;99.90;;;;;;5069952;28;19928;-75
2021/11/23 07:11:50;;;;;;;;;;;6.90;99.90;;;;;;5072268;28;20014;-75
2021/11/23 07:14:16;;;;;;;;;;;6.90;99.90;;;;;;5071098;28;20501;-76
2021/11/23 07:16:42;;;;;;;;;;;6.90;99.90;;;;;;5065442;28;19923;-76
2021/11/23 07:19:07;;;;;;;;;;;7.00;99.90;;;;;;5068122;28;19916;-76
2021/11/23 07:21:33;;;;;;;;;;;7.00;99.90;;;;;;5068417;28;19923;-76
2021/11/23 07:23:59;;;;;;;;;;;7.00;99.90;;;;;;5065193;28;19917;-76
2021/11/23 07:26:29;;;;;;;;;;;7.00;99.90;;;;;;5067190;28;20291;-75
2021/11/23 07:28:54;;;;;;;;;;;7.10;99.90;;;;;;5066533;28;19951;-76
2021/11/23 07:31:20;;;;;;;;;;;7.10;99.90;;;;;;5064695;28;19956;-76
2021/11/23 07:33:47;;;;;;;;;;;7.10;99.90;;;;;;5066065;28;20002;-75
2021/11/23 07:36:13;;;;;;;;;;;7.20;99.90;;;;;;5065388;28;20213;-76
2021/11/23 07:38:39;;;;;;;;;;;7.20;99.90;;;;;;5066587;28;19919;-76
2021/11/23 07:41:04;;;;;;;;;;;7.20;99.90;;;;;;5065914;28;20274;-76
2021/11/23 07:43:30;;;;;;;;;;;7.20;99.90;;;;;;5064658;28;19920;-76
2021/11/23 07:45:55;;;;;;;;;;;7.20;99.90;;;;;;5066062;28;19920;-76
2021/11/23 07:48:21;;;;;;;;;;;7.20;99.90;;;;;;5057408;28;19916;-76
2021/11/23 07:50:46;;;;;;;;;;;7.20;99.90;;;;;;5064995;28;19990;-76
2021/11/23 07:53:12;;;;;;;;;;;7.20;99.90;;;;;;5055804;28;19982;-76
2021/11/23 07:55:38;;;;;;;;;;;7.30;99.90;;;;;;5064949;28;19912;-76
2021/11/23 07:58:03;;;;;;;;;;;7.30;99.90;;;;;;5065317;28;19923;-76
2021/11/23 08:00:29;;;;;;;;;;;7.30;99.90;;;;;;5065628;28;19913;-76
2021/11/23 08:02:55;;;;;;;;;;;7.30;99.90;;;;;;5062726;28;19913;-76
2021/11/23 08:05:21;;;;;;;;;;;7.40;99.90;;;;;;5065139;28;19916;-76
2021/11/23 08:07:47;;;;;;;;;;;7.40;99.90;;;;;;5065481;28;19920;-77
2021/11/23 08:10:12;;;;;;;;;;;7.50;99.90;;;;;;5080976;28;19917;-76
2021/11/23 08:12:38;;;;;;;;;;;7.60;99.90;;;;;;5064420;28;20353;-76
2021/11/23 08:15:05;;;;;;;;;;;7.80;99.90;;;;;;5083200;28;19916;-76
2021/11/23 08:17:31;;;;;;;;;;;7.90;99.90;;;;;;5067726;28;19928;-76
2021/11/23 08:19:57;;;;;;;;;;;7.90;99.90;;;;;;5069146;28;19916;-77
2021/11/23 08:22:22;;;;;;;;;;;7.90;99.90;;;;;;5066444;28;19913;-76
2021/11/23 08:24:48;;;;;;;;;;;7.90;99.90;;;;;;5064220;28;20219;-76
2021/11/23 08:27:14;;;;;;;;;;;7.90;99.90;;;;;;5066052;28;19916;-76
2021/11/23 08:29:39;;;;;;;;;;;7.90;99.90;;;;;;5067021;28;19943;-76
2021/11/23 08:32:05;;;;;;;;;;;8.00;99.90;;;;;;5064405;28;19917;-77
2021/11/23 08:34:31;;;;;;;;;;;8.00;99.90;;;;;;5070539;28;19999;-77
2021/11/23 08:36:56;;;;;;;;;;;8.10;99.90;;;;;;5073550;28;19922;-76
2021/11/23 08:39:22;;;;;;;;;;;8.10;99.90;;;;;;5067722;28;19913;-76
2021/11/23 08:41:48;;;;;;;;;;;8.20;99.90;;;;;;5071123;28;19967;-77
2021/11/23 08:44:15;;;;;;;;;;;8.30;99.90;;;;;;5071184;28;19925;-77
2021/11/23 08:46:41;;;;;;;;;;;8.40;99.90;;;;;;5067954;28;20008;-77
2021/11/23 08:49:07;;;;;;;;;;;8.60;99.90;;;;;;5068790;28;19971;-77
2021/11/23 08:51:36;;;;;;;;;;;8.70;99.90;;;;;;5071590;28;19925;-77
2021/11/23 08:54:02;;;;;;;;;;;8.70;99.90;;;;;;5060561;28;19921;-77
2021/11/23 08:56:33;;;;;;;;;;;8.80;99.90;;;;;;5073087;28;20304;-78
2021/11/23 08:59:01;;;;;;;;;;;8.90;99.90;;;;;;5069142;28;19956;-79
2021/11/23 09:01:27;;;;;;;;;;;8.90;99.90;;;;;;5058772;28;19941;-77
2021/11/23 09:03:54;;;;;;;;;;;9.00;99.90;;;;;;5060698;28;20007;-77
2021/11/23 09:06:23;;;;;;;;;;;9.10;99.90;;;;;;5070965;28;19961;-78
2021/11/23 09:08:55;;;;;;;;;;;9.10;99.90;;;;;;5070881;28;19921;-77
2021/11/23 09:11:22;;;;;;;;;;;9.10;99.90;;;;;;5070257;28;19994;-77
2021/11/23 09:13:48;;;;;;;;;;;9.10;99.90;;;;;;5073625;28;19921;-77
2021/11/23 09:16:13;;;;;;;;;;;9.10;99.90;;;;;;5071423;28;19999;-77
2021/11/23 09:18:39;;;;;;;;;;;9.00;99.90;;;;;;5070267;28;19978;-78
2021/11/23 09:21:04;;;;;;;;;;;8.90;99.90;;;;;;5072076;28;19996;-78
2021/11/23 09:23:30;;;;;;;;;;;8.80;99.90;;;;;;5072022;28;19917;-78
2021/11/23 09:25:56;;;;;;;;;;;8.80;99.90;;;;;;5072264;28;19927;-78
2021/11/23 09:28:22;;;;;;;;;;;8.80;99.90;;;;;;5071294;28;19916;-77
2021/11/23 09:30:48;;;;;;;;;;;9.00;99.90;;;;;;5063892;28;19917;-78
2021/11/23 09:33:15;;;;;;;;;;;9.10;99.90;;;;;;5079711;28;19924;-78
2021/11/23 09:35:41;;;;;;;;;;;9.30;99.90;;;;;;5080760;28;20026;-78
2021/11/23 09:38:07;;;;;;;;;;;9.40;99.90;;;;;;5069119;28;19928;-78
2021/11/23 09:40:32;;;;;;;;;;;9.50;99.90;;;;;;5066626;28;19955;-78
2021/11/23 09:42:58;;;;;;;;;;;9.60;99.90;;;;;;5066900;28;19964;-77
2021/11/23 09:45:24;;;;;;;;;;;9.60;99.90;;;;;;5066545;28;20038;-78
2021/11/23 09:47:49;;;;;;;;;;;9.70;99.90;;;;;;5065235;28;20006;-78
2021/11/23 09:50:15;;;;;;;;;;;9.80;99.90;;;;;;5084614;28;20291;-77
2021/11/23 09:52:42;;;;;;;;;;;9.80;99.90;;;;;;5066459;28;19962;-78
2021/11/23 09:55:08;;;;;;;;;;;9.70;99.90;;;;;;5062231;28;20413;-78
2021/11/23 09:57:34;;;;;;;;;;;9.60;99.90;;;;;;5070015;28;20265;-78
2021/11/23 10:00:00;;;;;;;;;;;9.60;99.90;;;;;;5063576;28;19962;-80
2021/11/23 10:02:27;;;;;;;;;;;9.40;99.90;;;;;;5066187;28;19916;-81
2021/11/23 10:05:01;;;;;;;;;;;9.50;99.90;;;;;;5061899;28;19917;-79
2021/11/23 10:07:34;;;;;;;;;;;9.40;99.90;;;;;;5060149;28;19971;-80
2021/11/23 10:10:09;;;;;;;;;;;9.30;99.90;;;;;;5067691;28;19916;-79
2021/11/23 10:12:34;;;;;;;;;;;9.10;99.90;;;;;;5065839;28;19979;-78
2021/11/23 10:15:17;;;;;;;;;;;9.00;99.90;;;;;;5067333;28;19944;-78
2021/11/23 10:17:43;;;;;;;;;;;9.00;99.90;;;;;;5073652;28;19921;-78
2021/11/23 10:20:26;;;;;;;;;;;9.00;99.90;;;;;;5073212;28;19912;-77
2021/11/23 10:22:51;;;;;;;;;;;9.10;99.90;;;;;;5059000;28;19920;-78
2021/11/23 10:25:17;;;;;;;;;;;9.10;99.90;;;;;;5073633;28;20435;-79
2021/11/23 10:27:43;;;;;;;;;;;9.20;99.90;;;;;;5076544;28;20311;-78
2021/11/23 10:30:09;;;;;;;;;;;9.20;99.90;;;;;;5069750;28;20196;-78
2021/11/23 10:32:42;;;;;;;;;;;9.20;99.90;;;;;;5073386;28;19926;-79
2021/11/23 10:35:18;;;;;;;;;;;9.20;99.90;;;;;;5075130;28;19919;-79
2021/11/23 10:37:45;;;;;;;;;;;9.20;99.90;;;;;;5074170;28;19923;-78
2021/11/23 10:40:12;;;;;;;;;;;9.30;99.90;;;;;;5068063;28;19964;-79
2021/11/23 10:42:38;;;;;;;;;;;9.40;99.90;;;;;;5065761;28;19920;-78
2021/11/23 10:45:10;;;;;;;;;;;9.40;99.90;;;;;;5066269;28;19947;-80
2021/11/23 10:47:37;;;;;;;;;;;9.50;99.90;;;;;;5065921;28;19913;-78
2021/11/23 10:50:05;;;;;;;;;;;9.50;99.90;;;;;;5065933;28;19920;-83
2021/11/23 10:52:34;;;;;;;;;;;9.50;99.90;;;;;;5068764;28;19920;-79
2021/11/23 10:54:59;;;;;;;;;;;9.60;99.90;;;;;;5065386;28;19916;-78
2021/11/23 10:57:25;;;;;;;;;;;9.60;99.90;;;;;;5070952;28;19921;-79
2021/11/23 10:59:51;;;;;;;;;;;9.70;99.90;;;;;;5073566;28;19927;-78
2021/11/23 11:02:16;;;;;;;;;;;9.70;99.90;;;;;;5070017;28;19927;-79
2021/11/23 11:04:44;;;;;;;;;;;9.70;99.90;;;;;;5066912;28;19912;-79
2021/11/23 11:07:10;;;;;;;;;;;9.80;99.90;;;;;;5066417;28;20323;-80
2021/11/23 11:09:37;;;;;;;;;;;9.70;99.90;;;;;;5067052;28;19990;-79
2021/11/23 11:12:03;;;;;;;;;;;9.80;99.90;;;;;;5068143;28;19916;-78
2021/11/23 11:14:35;;;;;;;;;;;9.70;99.90;;;;;;5067287;28;20362;-78
2021/11/23 11:17:04;;;;;;;;;;;9.70;99.90;;;;;;5067613;28;20166;-79
2021/11/23 11:19:50;;;;;;;;;;;9.60;99.90;;;;;;5072283;28;19917;-79
2021/11/23 11:22:21;;;;;;;;;;;9.60;99.90;;;;;;5063809;28;19920;-78
2021/11/23 11:27:32;;;;;;;;;;;9.60;99.90;;;;;;5062814;28;19912;-78
2021/11/23 11:30:16;;;;;;;;;;;9.80;99.90;;;;;;5071727;28;19927;-78
2021/11/23 11:32:42;;;;;;;;;;;9.80;99.90;;;;;;5075894;28;19926;-78
2021/11/23 11:35:24;;;;;;;;;;;9.80;99.90;;;;;;5069042;28;20000;-79
2021/11/23 11:37:51;;;;;;;;;;;9.90;99.90;;;;;;5058508;28;19927;-79
2021/11/23 11:40:27;;;;;;;;;;;9.90;99.90;;;;;;5065273;28;19927;-81
2021/11/23 11:43:00;;;;;;;;;;;9.90;99.90;;;;;;5086467;28;20007;-79
2021/11/23 11:45:36;;;;;;;;;;;10.00;99.90;;;;;;5070101;28;19923;-79
2021/11/23 11:48:02;;;;;;;;;;;10.00;99.90;;;;;;5070440;28;20294;-78
2021/11/23 11:50:28;;;;;;;;;;;10.10;99.90;;;;;;5069226;28;19916;-78
2021/11/23 11:52:57;;;;;;;;;;;10.20;99.90;;;;;;5070152;28;19951;-80
2021/11/23 11:55:27;;;;;;;;;;;10.20;99.90;;;;;;5064986;28;20335;-78
2021/11/23 11:57:57;;;;;;;;;;;10.00;99.90;;;;;;5065842;28;19923;-78
2021/11/23 12:00:23;;;;;;;;;;;10.00;99.90;;;;;;5065057;28;20026;-79
2021/11/23 12:02:49;;;;;;;;;;;9.90;99.90;;;;;;5062818;28;19931;-79
2021/11/23 12:05:15;;;;;;;;;;;9.90;99.90;;;;;;5068748;28;19948;-79
2021/11/23 12:07:48;;;;;;;;;;;9.80;99.90;;;;;;5064732;28;20638;-79
2021/11/23 12:10:17;;;;;;;;;;;9.80;99.90;;;;;;5061455;28;20165;-78
2021/11/23 12:12:43;;;;;;;;;;;9.70;99.90;;;;;;5066428;28;19964;-78
2021/11/23 12:15:13;;;;;;;;;;;9.70;99.90;;;;;;5069302;28;19920;-78
2021/11/23 12:17:40;;;;;;;;;;;9.80;99.90;;;;;;5063455;28;19936;-78
2021/11/23 12:20:14;;;;;;;;;;;9.90;99.90;;;;;;5072616;28;20013;-79
2021/11/23 12:22:43;;;;;;;;;;;10.10;99.90;;;;;;5073954;28;19955;-78
2021/11/23 12:25:13;;;;;;;;;;;10.10;99.90;;;;;;5068946;28;19922;-78
2021/11/23 12:27:45;;;;;;;;;;;10.20;99.90;;;;;;5057962;28;19917;-79
2021/11/23 12:30:12;;;;;;;;;;;10.30;99.90;;;;;;5073159;28;19916;-78
2021/11/23 12:32:38;;;;;;;;;;;10.40;99.90;;;;;;5072091;28;20002;-79
2021/11/23 12:35:05;;;;;;;;;;;10.60;99.90;;;;;;5068331;28;20016;-79
2021/11/23 12:37:31;;;;;;;;;;;10.80;99.90;;;;;;5057364;28;19923;-79
2021/11/23 12:39:58;;;;;;;;;;;10.80;99.90;;;;;;5068324;28;20007;-78
2021/11/23 12:42:24;;;;;;;;;;;10.80;99.90;;;;;;5068335;28;19928;-80
2021/11/23 12:44:49;;;;;;;;;;;10.90;99.90;;;;;;5069920;28;19917;-79
2021/11/23 12:47:17;;;;;;;;;;;10.90;99.90;;;;;;5076447;28;19916;-79
2021/11/23 12:49:43;;;;;;;;;;;10.70;99.90;;;;;;5067274;28;19916;-79
2021/11/23 12:52:10;;;;;;;;;;;10.60;99.90;;;;;;5061998;28;19924;-80
2021/11/23 12:54:37;;;;;;;;;;;10.60;99.90;;;;;;5059922;28;19912;-79
2021/11/23 12:57:05;;;;;;;;;;;10.60;99.90;;;;;;5061141;28;20330;-79
2021/11/23 12:59:37;;;;;;;;;;;10.60;99.90;;;;;;5062227;28;19951;-79
2021/11/23 13:02:21;;;;;;;;;;;10.70;99.90;;;;;;5061792;28;20383;-79
2021/11/23 13:04:47;;;;;;;;;;;10.70;99.90;;;;;;5061992;28;19920;-78
2021/11/23 13:07:12;;;;;;;;;;;10.80;99.90;;;;;;5062718;28;19939;-79
2021/11/23 13:10:11;;;;;;;;;;;10.70;99.90;;;;;;5066239;28;19999;-79
2021/11/23 13:12:44;;;;;;;;;;;10.70;99.90;;;;;;5025312;28;20115;-79
2021/11/23 13:15:14;;;;;;;;;;;10.70;99.90;;;;;;5045811;28;19917;-79
2021/11/23 13:17:43;;;;;;;;;;;10.60;99.90;;;;;;5042495;28;19960;-78
2021/11/23 13:20:13;;;;;;;;;;;10.50;99.90;;;;;;5043332;28;19963;-79
2021/11/23 13:22:40;;;;;;;;;;;10.40;99.90;;;;;;5046007;28;20025;-80
2021/11/23 13:25:05;;;;;;;;;;;10.50;99.90;;;;;;5048445;28;20271;-79
2021/11/23 13:27:32;;;;;;;;;;;10.60;99.90;;;;;;5042922;28;19917;-79
2021/11/23 13:30:00;;;;;;;;;;;10.70;99.90;;;;;;5029935;28;19917;-78
2021/11/23 13:32:26;;;;;;;;;;;10.90;99.90;;;;;;5047987;28;20844;-79
2021/11/23 13:35:18;;;;;;;;;;;10.90;99.90;;;;;;5037616;28;19948;-78
2021/11/23 13:37:43;;;;;;;;;;;10.70;99.90;;;;;;5034815;28;19924;-78
2021/11/23 13:40:18;;;;;;;;;;;10.40;99.90;;;;;;5051610;28;19917;-78
2021/11/23 13:42:44;;;;;;;;;;;10.20;99.90;;;;;;5047827;28;19917;-79
2021/11/23 13:45:13;;;;;;;;;;;10.00;99.90;;;;;;5050088;28;20389;-79
2021/11/23 13:47:39;;;;;;;;;;;9.90;99.90;;;;;;5056228;28;19916;-79
2021/11/23 13:50:05;;;;;;;;;;;9.90;99.90;;;;;;5064082;28;19916;-80
2021/11/23 13:52:34;;;;;;;;;;;9.80;99.90;;;;;;5065178;28;20626;-78
2021/11/23 13:55:04;;;;;;;;;;;9.80;99.90;;;;;;5066176;28;19916;-79
2021/11/23 13:57:37;;;;;;;;;;;9.80;99.90;;;;;;5065122;28;19956;-78
2021/11/23 14:00:04;;;;;;;;;;;9.80;99.90;;;;;;5063567;28;19927;-78
2021/11/23 14:02:48;;;;;;;;;;;9.80;99.90;;;;;;5065911;28;19963;-78
2021/11/23 14:05:15;;;;;;;;;;;9.80;99.90;;;;;;5065520;28;19920;-79
2021/11/23 14:07:51;;;;;;;;;;;9.80;99.90;;;;;;5064690;28;19913;-78
2021/11/23 14:10:33;;;;;;;;;;;9.80;99.90;;;;;;5065515;28;20026;-79
2021/11/23 14:13:01;;;;;;;;;;;9.80;99.90;;;;;;5066278;28;20020;-78
2021/11/23 14:15:27;;;;;;;;;;;9.60;99.90;;;;;;5066171;28;20015;-78
2021/11/23 14:18:02;;;;;;;;;;;9.60;99.90;;;;;;5063020;28;19924;-77
2021/11/23 14:20:33;;;;;;;;;;;9.60;99.90;;;;;;5062365;28;20051;-79
2021/11/23 14:23:09;;;;;;;;;;;9.60;99.90;;;;;;5064586;28;19927;-79
2021/11/23 14:25:35;;;;;;;;;;;9.60;99.90;;;;;;5063739;28;20585;-78
2021/11/23 14:28:02;;;;;;;;;;;9.60;99.90;;;;;;5064096;28;19923;-79
2021/11/23 14:30:28;;;;;;;;;;;9.60;99.90;;;;;;5068003;28;19912;-79